Time;durP1;ratioP1;P1;durP2;ratioP2;P2;SDS_P1;SDS_P2;PMS_P1;PMS_P2;Temp;Humidity;BMP_temperature;BMP_pressure;BME280_temperature;BME280_humidity;BME280_pressure;Samples;Min_cycle;Max_cycle;Signal;HPM_P1;HPM_P2
2021/01/05 00:00:30;;;;;;;;;20.00;16.75;;;;;5.09;89.87;100958.25;3725710;38;19927;-61
2021/01/05 00:02:58;;;;;;;;;23.50;19.75;;;;;5.12;89.53;100955.28;3725587;38;20065;-61
2021/01/05 00:05:28;;;;;;;;;19.75;14.50;;;;;5.10;89.65;100946.53;3725714;37;19919;-60
2021/01/05 00:07:57;;;;;;;;;24.50;15.50;;;;;5.13;89.82;100951.63;3725504;37;19914;-61
2021/01/05 00:10:23;;;;;;;;;21.50;17.00;;;;;5.16;89.98;100956.72;3725441;37;19981;-61
2021/01/05 00:12:52;;;;;;;;;26.00;21.50;;;;;5.12;89.73;100947.25;3725476;37;19926;-61
2021/01/05 00:15:19;;;;;;;;;28.00;20.00;;;;;5.09;89.76;100945.69;3725713;37;19939;-59
2021/01/05 00:17:49;;;;;;;;;19.50;17.25;;;;;5.18;89.44;100949.37;3725612;38;19961;-60
2021/01/05 00:20:23;;;;;;;;;20.75;16.75;;;;;5.25;89.67;100948.66;3725973;38;19979;-59
2021/01/05 00:22:50;;;;;;;;;21.25;18.00;;;;;5.23;89.64;100949.78;3725859;37;19897;-60
2021/01/05 00:25:20;;;;;;;;;23.50;19.75;;;;;5.28;89.90;100952.88;3725499;37;19920;-60
2021/01/05 00:27:46;;;;;;;;;20.25;18.50;;;;;5.29;89.74;100944.69;3725648;37;19887;-60
2021/01/05 00:30:22;;;;;;;;;20.00;15.00;;;;;5.38;89.83;100961.81;3725579;37;19919;-60
2021/01/05 00:32:51;;;;;;;;;16.50;14.25;;;;;5.29;89.48;100947.38;3725564;37;19877;-60
2021/01/05 00:35:21;;;;;;;;;22.00;17.25;;;;;5.33;89.78;100958.69;3725369;38;19857;-60
2021/01/05 00:37:50;;;;;;;;;21.50;17.75;;;;;5.32;89.64;100952.47;3725770;38;19863;-59
2021/01/05 00:40:18;;;;;;;;;21.00;19.75;;;;;5.29;89.30;100942.00;3725741;37;20017;-60
2021/01/05 00:42:45;;;;;;;;;18.00;14.25;;;;;5.32;89.74;100940.88;3725931;37;19890;-61
2021/01/05 00:45:23;;;;;;;;;17.50;16.50;;;;;5.22;89.39;100931.97;3725776;38;19902;-60
2021/01/05 00:47:49;;;;;;;;;15.75;14.00;;;;;5.26;89.47;100925.34;3725311;38;19867;-59
2021/01/05 00:50:15;;;;;;;;;21.50;17.25;;;;;5.21;89.29;100917.72;3725758;37;19974;-60
2021/01/05 00:52:44;;;;;;;;;19.00;18.75;;;;;5.23;89.65;100907.69;3726002;37;19867;-61
2021/01/05 00:55:12;;;;;;;;;17.75;16.25;;;;;5.22;89.44;100891.72;3725870;37;19867;-60
2021/01/05 00:57:39;;;;;;;;;20.00;18.25;;;;;5.24;89.39;100897.81;3725580;37;19874;-61
2021/01/05 01:00:11;;;;;;;;;19.50;17.50;;;;;5.25;89.52;100886.09;3724875;37;19871;-60
2021/01/05 01:02:41;;;;;;;;;19.00;17.25;;;;;5.10;89.48;100861.53;3724826;37;19875;-60
2021/01/05 01:05:10;;;;;;;;;20.50;17.50;;;;;5.28;89.20;100864.34;3725275;37;19868;-60
2021/01/05 01:07:39;;;;;;;;;15.75;13.75;;;;;5.32;89.18;100865.75;3725798;37;19871;-60
2021/01/05 01:10:10;;;;;;;;;20.50;16.25;;;;;5.27;89.03;100862.62;3725354;38;19866;-60
2021/01/05 01:12:37;;;;;;;;;21.25;16.25;;;;;5.32;89.23;100857.69;3725928;38;19857;-59
2021/01/05 01:15:06;;;;;;;;;17.75;16.00;;;;;5.26;89.10;100853.75;3725443;38;19869;-60
2021/01/05 01:17:32;;;;;;;;;17.75;15.00;;;;;5.07;89.29;100834.16;3726017;37;19828;-61
2021/01/05 01:19:58;;;;;;;;;17.25;14.50;;;;;5.24;89.21;100852.19;3725763;37;19857;-61
2021/01/05 01:22:26;;;;;;;;;19.00;16.00;;;;;5.21;89.35;100855.16;3725750;37;19811;-60
2021/01/05 01:24:52;;;;;;;;;16.75;14.75;;;;;5.13;89.40;100855.88;3725317;37;19835;-60
2021/01/05 01:27:21;;;;;;;;;23.75;20.00;;;;;5.23;89.44;100866.59;3725484;37;19851;-60
2021/01/05 01:29:47;;;;;;;;;17.75;14.00;;;;;5.24;89.18;100868.28;3725252;38;19925;-61
2021/01/05 01:32:15;;;;;;;;;26.50;21.25;;;;;5.30;89.51;100868.56;3725667;37;19828;-61
2021/01/05 01:34:43;;;;;;;;;18.25;16.75;;;;;5.31;89.13;100872.94;3725468;37;19822;-60
2021/01/05 01:37:16;;;;;;;;;15.50;14.25;;;;;5.21;89.36;100865.88;3725869;37;19781;-61
2021/01/05 01:39:46;;;;;;;;;17.00;15.75;;;;;5.20;88.99;100861.53;3725442;37;19811;-60
2021/01/05 01:42:15;;;;;;;;;17.50;15.25;;;;;5.08;88.98;100855.47;3725536;37;19790;-61
2021/01/05 01:44:45;;;;;;;;;17.50;15.00;;;;;4.99;88.91;100849.09;3725474;38;19821;-61
2021/01/05 01:47:38;;;;;;;;;20.50;16.50;;;;;5.12;89.17;100882.84;3725832;38;19824;-61
2021/01/05 01:50:17;;;;;;;;;19.00;16.25;;;;;5.13;88.88;100887.25;3725673;37;19788;-61
2021/01/05 01:53:33;;;;;;;;;13.75;12.50;;;;;5.04;89.00;100867.47;3725561;38;19788;-61
2021/01/05 01:56:52;;;;;;;;;18.00;16.00;;;;;5.14;88.77;100886.25;3725964;37;19764;-58
2021/01/05 01:59:52;;;;;;;;;17.25;14.50;;;;;5.05;88.51;100890.63;3725113;37;19809;-60
2021/01/05 02:02:30;;;;;;;;;19.75;18.50;;;;;5.06;88.64;100889.62;3725877;37;19792;-59
2021/01/05 02:05:14;;;;;;;;;21.25;15.50;;;;;5.08;88.84;100876.94;3725995;37;19781;-59
2021/01/05 02:07:58;;;;;;;;;23.25;20.50;;;;;4.99;88.24;100867.87;3725497;38;19757;-59
2021/01/05 02:11:07;;;;;;;;;19.75;16.25;;;;;4.93;88.71;100854.19;3725614;37;19745;-60
2021/01/05 02:14:34;;;;;;;;;24.00;17.75;;;;;4.88;88.40;100841.19;3725654;38;19744;-60
2021/01/05 02:17:42;;;;;;;;;20.00;18.25;;;;;5.03;88.27;100868.44;3725649;38;19776;-60
2021/01/05 02:20:20;;;;;;;;;20.50;16.50;;;;;4.91;87.98;100874.94;3725799;37;19722;-59
2021/01/05 02:23:08;;;;;;;;;30.50;21.00;;;;;4.90;88.08;100874.09;3725415;37;19755;-59
2021/01/05 02:26:28;;;;;;;;;21.25;19.50;;;;;4.89;88.18;100864.34;3725640;38;19755;-59
2021/01/05 02:29:03;;;;;;;;;24.00;20.25;;;;;4.91;88.06;100878.47;3725660;38;19759;-60
2021/01/05 02:32:00;;;;;;;;;21.25;17.75;;;;;4.92;87.92;100880.16;3725739;38;19765;-60
2021/01/05 02:35:00;;;;;;;;;30.00;24.25;;;;;4.90;87.61;100883.97;3725579;38;19729;-61
2021/01/05 02:38:20;;;;;;;;;24.00;20.00;;;;;4.62;87.73;100859.66;3725730;37;20727;-61
2021/01/05 02:41:23;;;;;;;;;22.50;21.25;;;;;4.87;87.95;100882.41;3725650;37;19755;-59
2021/01/05 02:44:45;;;;;;;;;21.00;19.25;;;;;4.77;87.43;100892.25;3725839;37;20954;-60
2021/01/05 02:47:48;;;;;;;;;21.75;19.25;;;;;4.62;87.16;100909.75;3725856;37;20710;-60
2021/01/05 02:51:08;;;;;;;;;21.25;18.50;;;;;4.48;87.34;100843.13;3725624;38;20712;-59
2021/01/05 02:54:18;;;;;;;;;24.25;19.00;;;;;4.54;87.01;100870.22;3725428;38;20668;-60
2021/01/05 02:57:29;;;;;;;;;19.50;17.25;;;;;4.55;87.18;100866.56;3725914;38;20739;-60
2021/01/05 03:00:50;;;;;;;;;27.25;23.00;;;;;4.53;87.13;100865.84;3725674;38;20668;-60
2021/01/05 03:03:56;;;;;;;;;24.50;18.25;;;;;4.52;87.00;100865.97;3725447;38;20686;-61
2021/01/05 03:06:49;;;;;;;;;19.75;16.00;;;;;4.47;87.04;100852.12;3725897;38;20690;-60
2021/01/05 03:09:50;;;;;;;;;23.75;19.50;;;;;4.42;86.86;100849.88;3725871;37;20663;-59
2021/01/05 03:12:55;;;;;;;;;22.00;17.00;;;;;4.23;87.01;100831.91;3725663;38;20682;-60
2021/01/05 03:15:48;;;;;;;;;18.00;15.75;;;;;4.17;86.46;100853.87;3725759;37;20680;-62
2021/01/05 03:18:43;;;;;;;;;26.00;21.00;;;;;4.22;86.85;100858.81;3725357;38;20680;-59
2021/01/05 03:21:26;;;;;;;;;18.00;14.00;;;;;4.17;86.78;100861.06;3725303;37;20679;-60
2021/01/05 03:23:54;;;;;;;;;17.75;14.25;;;;;4.19;86.51;100856.41;3725567;37;20657;-61
2021/01/05 03:26:31;;;;;;;;;13.00;9.50;;;;;4.11;86.44;100856.28;3726113;38;20652;-60
2021/01/05 03:29:00;;;;;;;;;16.00;12.75;;;;;4.04;86.55;100861.31;3725859;38;20628;-61
2021/01/05 03:31:49;;;;;;;;;20.25;15.50;;;;;4.05;86.66;100860.34;3725654;37;20636;-60
2021/01/05 03:34:16;;;;;;;;;12.00;10.25;;;;;4.04;86.49;100860.47;3725776;38;20636;-60
2021/01/05 03:36:42;;;;;;;;;19.75;17.75;;;;;4.04;86.76;100855.09;3725841;38;20641;-61
2021/01/05 03:39:09;;;;;;;;;17.50;12.75;;;;;3.86;86.14;100846.84;3725766;38;20660;-60
2021/01/05 03:41:36;;;;;;;;;16.00;12.25;;;;;3.90;86.30;100854.47;3725676;37;20629;-60
2021/01/05 03:44:05;;;;;;;;;13.75;11.75;;;;;3.77;86.07;100861.88;3726021;37;20631;-61
2021/01/05 03:46:32;;;;;;;;;6.50;5.25;;;;;3.72;86.26;100872.13;3725748;37;20608;-61
2021/01/05 03:49:01;;;;;;;;;14.50;12.00;;;;;3.66;86.02;100849.41;3725922;38;20565;-60
2021/01/05 03:51:27;;;;;;;;;14.00;10.00;;;;;3.70;86.17;100868.72;3726692;37;20633;-60
2021/01/05 03:53:55;;;;;;;;;9.25;8.00;;;;;3.74;86.13;100875.53;3725794;38;20601;-61
2021/01/05 03:56:21;;;;;;;;;14.00;12.00;;;;;3.76;86.10;100873.56;3725534;37;20564;-60
2021/01/05 03:58:48;;;;;;;;;12.00;10.25;;;;;3.71;86.10;100874.94;3725709;37;20613;-59
2021/01/05 04:01:14;;;;;;;;;9.00;9.00;;;;;3.60;85.76;100860.66;3725817;37;20595;-60
2021/01/05 04:03:42;;;;;;;;;8.25;7.00;;;;;3.59;86.00;100867.00;3725648;37;20597;-61
2021/01/05 04:06:10;;;;;;;;;7.25;6.25;;;;;3.60;86.05;100859.81;3725374;37;20575;-60
2021/01/05 04:08:37;;;;;;;;;10.75;5.50;;;;;3.58;85.69;100856.44;3725364;38;20554;-60
2021/01/05 04:11:06;;;;;;;;;12.00;8.00;;;;;3.45;85.79;100859.31;3725366;37;20558;-60
2021/01/05 04:13:33;;;;;;;;;10.25;8.50;;;;;3.51;85.87;100857.94;3725740;37;20583;-60
2021/01/05 04:16:01;;;;;;;;;7.50;7.25;;;;;3.50;85.75;100845.53;3725823;37;20554;-59
2021/01/05 04:18:27;;;;;;;;;7.00;7.00;;;;;3.43;86.04;100828.31;3725540;37;20562;-61
2021/01/05 04:20:54;;;;;;;;;12.25;11.50;;;;;3.51;85.49;100858.78;3725276;37;20667;-58
2021/01/05 04:23:21;;;;;;;;;11.00;7.50;;;;;3.52;85.48;100860.47;3725427;37;20564;-60
2021/01/05 04:25:48;;;;;;;;;9.00;8.75;;;;;3.51;85.43;100858.78;3725485;37;20540;-61
2021/01/05 04:28:14;;;;;;;;;8.00;8.00;;;;;3.49;85.67;100850.03;3725778;37;20526;-60
2021/01/05 04:30:41;;;;;;;;;9.00;7.75;;;;;3.50;85.44;100841.03;3725822;37;20536;-61
2021/01/05 04:33:10;;;;;;;;;9.00;9.00;;;;;3.40;85.59;100837.44;3725341;37;20533;-60
2021/01/05 04:35:37;;;;;;;;;8.25;7.50;;;;;3.30;85.44;100842.72;3725762;38;20514;-61
2021/01/05 04:38:07;;;;;;;;;12.00;9.00;;;;;3.43;85.78;100839.00;3725876;38;20504;-61
2021/01/05 04:40:42;;;;;;;;;9.25;7.25;;;;;3.46;85.49;100846.78;3725771;38;20527;-60
2021/01/05 04:43:53;;;;;;;;;8.00;7.25;;;;;3.38;85.36;100847.41;3725837;37;20531;-61
2021/01/05 04:46:49;;;;;;;;;8.00;7.50;;;;;3.27;85.50;100828.75;3725787;38;20635;-60
2021/01/05 04:49:53;;;;;;;;;9.50;9.00;;;;;3.30;85.34;100864.13;3725790;38;20710;-61
2021/01/05 04:52:26;;;;;;;;;15.00;12.00;;;;;3.17;85.07;100854.56;3725723;37;20485;-60
2021/01/05 04:55:01;;;;;;;;;8.25;6.25;;;;;3.12;85.60;100856.81;3725792;37;20541;-60
2021/01/05 04:57:33;;;;;;;;;10.75;9.75;;;;;3.05;85.11;100867.19;3725711;37;20505;-60
2021/01/05 05:00:22;;;;;;;;;11.00;8.00;;;;;3.05;85.31;100861.81;3725632;38;20502;-60
2021/01/05 05:03:18;;;;;;;;;9.00;9.00;;;;;3.03;85.17;100858.44;3725366;37;20540;-60
2021/01/05 05:06:34;;;;;;;;;10.75;8.75;;;;;2.86;85.42;100845.59;3725818;38;20456;-59
2021/01/05 05:09:41;;;;;;;;;15.50;14.25;;;;;2.91;85.11;100862.12;3725559;37;20511;-60
2021/01/05 05:12:23;;;;;;;;;9.75;8.25;;;;;2.84;84.82;100866.28;3725776;38;20527;-60
2021/01/05 05:15:15;;;;;;;;;8.25;8.25;;;;;2.74;85.24;100855.47;3725801;38;20451;-59
2021/01/05 05:18:10;;;;;;;;;10.75;10.75;;;;;2.96;85.45;100881.31;3726081;37;20495;-60
2021/01/05 05:20:56;;;;;;;;;10.00;10.00;;;;;2.91;84.83;100881.69;3725834;38;20492;-60
2021/01/05 05:24:15;;;;;;;;;10.50;9.00;;;;;2.81;84.58;100864.69;3725801;37;20441;-60
2021/01/05 05:27:36;;;;;;;;;12.00;11.25;;;;;2.79;84.69;100850.63;3725772;37;20447;-60
2021/01/05 05:30:18;;;;;;;;;10.75;10.75;;;;;2.75;84.52;100856.34;3725327;37;20452;-61
2021/01/05 05:32:50;;;;;;;;;20.00;12.00;;;;;2.77;84.87;100865.06;3725258;38;20467;-61
2021/01/05 05:35:58;;;;;;;;;16.25;13.00;;;;;2.78;85.00;100875.62;3725187;37;20466;-60
2021/01/05 05:39:21;;;;;;;;;17.00;17.00;;;;;2.73;84.65;100860.94;3725254;38;20503;-61
2021/01/05 05:42:26;;;;;;;;;16.00;13.75;;;;;2.72;84.83;100870.78;3725688;37;20503;-61
2021/01/05 05:45:11;;;;;;;;;14.50;11.25;;;;;2.74;84.60;100847.47;3725569;37;20483;-60
2021/01/05 05:48:15;;;;;;;;;12.25;11.25;;;;;2.50;84.42;100852.16;3725757;38;20448;-61
2021/01/05 05:50:55;;;;;;;;;13.25;8.00;;;;;2.37;84.49;100835.44;3725655;38;20429;-60
2021/01/05 05:53:29;;;;;;;;;16.50;14.00;;;;;2.56;84.92;100852.53;3725864;37;20408;-60
2021/01/05 05:56:20;;;;;;;;;16.00;12.75;;;;;2.51;84.89;100830.69;3725406;38;20469;-60
2021/01/05 05:58:53;;;;;;;;;15.75;14.75;;;;;2.52;84.31;100837.72;3725651;37;20450;-60
2021/01/05 06:01:27;;;;;;;;;17.25;12.25;;;;;2.23;84.04;100809.84;3725619;37;20477;-60
2021/01/05 06:03:57;;;;;;;;;17.75;13.75;;;;;2.22;84.44;100825.00;3726624;37;20447;-60
2021/01/05 06:06:26;;;;;;;;;14.50;13.50;;;;;2.44;85.06;100850.84;3726508;37;20440;-59
2021/01/05 06:08:53;;;;;;;;;14.00;12.50;;;;;2.31;84.47;100840.28;3725462;37;20425;-60
2021/01/05 06:11:19;;;;;;;;;16.50;13.25;;;;;2.41;85.16;100847.56;3725514;38;20467;-61
2021/01/05 06:13:46;;;;;;;;;16.00;13.50;;;;;2.27;84.86;100819.31;3725538;38;20448;-62
2021/01/05 06:16:12;;;;;;;;;15.75;14.75;;;;;2.35;85.26;100816.87;3726030;38;20415;-61
2021/01/05 06:18:40;;;;;;;;;16.75;13.50;;;;;2.17;84.78;100821.84;3726231;38;20413;-61
2021/01/05 06:21:08;;;;;;;;;18.25;15.25;;;;;2.31;85.21;100834.97;3725754;37;20436;-60
2021/01/05 06:23:36;;;;;;;;;19.00;14.50;;;;;2.38;85.71;100831.78;3726232;38;20424;-61
2021/01/05 06:26:06;;;;;;;;;21.50;16.25;;;;;2.49;85.55;100832.63;3726106;38;20444;-62
2021/01/05 06:28:32;;;;;;;;;20.50;15.50;;;;;2.54;85.53;100822.41;3725777;37;20404;-60
2021/01/05 06:31:00;;;;;;;;;18.50;13.25;;;;;2.54;85.49;100821.56;3725889;37;20410;-60
2021/01/05 06:33:27;;;;;;;;;18.25;15.25;;;;;2.44;85.23;100813.44;3725768;38;20591;-61
2021/01/05 06:35:53;;;;;;;;;16.00;15.00;;;;;2.32;85.41;100825.97;3725748;38;20408;-61
2021/01/05 06:38:19;;;;;;;;;20.00;16.50;;;;;2.46;85.94;100824.84;3725683;38;20407;-61
2021/01/05 06:40:46;;;;;;;;;22.00;16.00;;;;;2.53;85.58;100833.22;3725589;38;20417;-61
2021/01/05 06:43:12;;;;;;;;;20.75;15.50;;;;;2.33;85.04;100827.66;3725810;37;20383;-61
2021/01/05 06:45:38;;;;;;;;;19.75;16.75;;;;;2.32;85.98;100815.28;3725773;37;20393;-60
2021/01/05 06:48:06;;;;;;;;;55.25;44.25;;;;;2.46;85.54;100826.69;3725847;38;20382;-60
2021/01/05 06:50:32;;;;;;;;;18.25;14.00;;;;;2.47;85.56;100807.84;3725345;38;20448;-59
2021/01/05 06:52:59;;;;;;;;;25.00;20.00;;;;;2.23;85.99;100781.31;3725835;38;20384;-61
2021/01/05 06:55:26;;;;;;;;;20.50;19.50;;;;;2.50;86.12;100817.44;3725446;37;20390;-59
2021/01/05 06:57:52;;;;;;;;;26.00;21.00;;;;;2.54;86.25;100809.06;3725382;38;20461;-61
2021/01/05 07:00:25;;;;;;;;;20.75;14.75;;;;;2.56;85.95;100804.44;3725673;38;20388;-61
2021/01/05 07:02:52;;;;;;;;;15.75;13.00;;;;;2.47;85.71;100799.84;3725247;38;20364;-60
2021/01/05 07:05:20;;;;;;;;;21.50;15.00;;;;;2.33;86.58;100768.91;3725810;37;20362;-61
2021/01/05 07:07:47;;;;;;;;;17.00;13.00;;;;;2.52;86.62;100792.28;3725906;38;20364;-62
2021/01/05 07:10:16;;;;;;;;;16.00;11.50;;;;;2.54;86.24;100805.53;3725799;37;20378;-59
2021/01/05 07:12:45;;;;;;;;;18.75;18.00;;;;;2.52;85.88;100805.66;3725432;37;20363;-58
2021/01/05 07:15:13;;;;;;;;;16.50;14.75;;;;;2.55;86.11;100800.06;3725731;37;20359;-58
2021/01/05 07:17:39;;;;;;;;;15.00;12.00;;;;;2.46;86.42;100779.44;3725693;37;20371;-57
2021/01/05 07:20:08;;;;;;;;;21.75;20.50;;;;;2.56;86.01;100780.38;3725716;38;20377;-58
2021/01/05 07:22:35;;;;;;;;;22.50;16.00;;;;;2.61;86.61;100777.31;3725288;37;20347;-59
2021/01/05 07:25:02;;;;;;;;;21.00;18.50;;;;;2.59;86.48;100785.47;3725724;38;20362;-58
2021/01/05 07:27:28;;;;;;;;;22.00;17.50;;;;;2.60;86.50;100778.31;3725813;38;20334;-58
2021/01/05 07:29:54;;;;;;;;;20.25;17.00;;;;;2.62;87.16;100795.03;3725765;37;20441;-57
2021/01/05 07:32:21;;;;;;;;;21.50;18.50;;;;;2.63;86.94;100784.22;3725753;37;20372;-57
2021/01/05 07:34:47;;;;;;;;;19.25;17.00;;;;;2.59;86.69;100793.50;3725687;37;20347;-58
2021/01/05 07:37:21;;;;;;;;;25.75;21.00;;;;;2.69;86.62;100785.53;3725728;37;20466;-57
2021/01/05 07:39:48;;;;;;;;;23.25;20.75;;;;;2.74;86.70;100788.66;3725666;37;20342;-56
2021/01/05 07:42:33;;;;;;;;;15.75;15.25;;;;;2.82;86.63;100786.22;3725747;38;20329;-58
2021/01/05 07:45:03;;;;;;;;;22.75;20.00;;;;;2.73;86.46;100783.44;3725704;37;20306;-59
2021/01/05 07:47:34;;;;;;;;;27.00;23.75;;;;;2.84;86.81;100789.59;3725764;37;20313;-57
2021/01/05 07:50:01;;;;;;;;;30.00;26.50;;;;;2.81;86.29;100778.31;3725591;37;20331;-57
2021/01/05 07:52:41;;;;;;;;;26.50;20.50;;;;;2.82;86.45;100786.22;3725527;38;20318;-57
2021/01/05 07:55:20;;;;;;;;;22.75;21.25;;;;;2.75;86.65;100770.81;3725421;37;20331;-63
2021/01/05 07:57:46;;;;;;;;;22.00;19.00;;;;;2.91;86.51;100793.47;3725161;37;20305;-60
2021/01/05 08:00:16;;;;;;;;;15.75;7.25;;;;;2.76;86.52;100788.53;3725799;38;20313;-59
2021/01/05 08:02:43;;;;;;;;;23.25;18.25;;;;;2.64;86.84;100777.03;3725362;37;20318;-58
2021/01/05 08:05:16;;;;;;;;;20.00;18.25;;;;;2.87;86.65;100797.38;3725771;37;20291;-59
2021/01/05 08:07:44;;;;;;;;;22.50;20.50;;;;;2.78;86.51;100798.12;3725895;37;20270;-59
2021/01/05 08:10:21;;;;;;;;;19.25;17.75;;;;;2.90;87.27;100801.59;3725250;37;20293;-59
2021/01/05 08:12:49;;;;;;;;;20.75;18.50;;;;;2.83;86.24;100800.44;3725745;38;20283;-59
2021/01/05 08:15:17;;;;;;;;;19.00;16.25;;;;;2.83;86.48;100800.44;3725155;37;20308;-59
2021/01/05 08:17:44;;;;;;;;;22.25;21.75;;;;;2.82;87.37;100794.22;3725961;37;20292;-59
2021/01/05 08:20:11;;;;;;;;;17.00;16.75;;;;;2.95;87.76;100794.91;3725531;38;20280;-61
2021/01/05 08:22:38;;;;;;;;;18.75;18.25;;;;;2.93;86.81;100786.16;3725625;38;20287;-59
2021/01/05 08:25:06;;;;;;;;;24.00;22.00;;;;;2.93;87.12;100791.50;3725847;37;20280;-60
2021/01/05 08:27:41;;;;;;;;;29.50;26.00;;;;;2.90;87.32;100781.06;3725665;37;20290;-60
2021/01/05 08:30:08;;;;;;;;;27.75;22.75;;;;;2.90;87.19;100782.91;3725810;37;20283;-59
2021/01/05 08:32:34;;;;;;;;;30.50;24.25;;;;;2.91;87.21;100780.09;3725684;38;20253;-59
2021/01/05 08:35:01;;;;;;;;;24.00;20.50;;;;;2.95;87.45;100778.88;3725705;37;20281;-58
2021/01/05 08:37:36;;;;;;;;;21.25;16.25;;;;;2.92;87.08;100773.78;3725377;38;20256;-58
2021/01/05 08:40:05;;;;;;;;;21.00;17.50;;;;;2.92;87.09;100772.94;3725895;37;20259;-60
2021/01/05 08:42:32;;;;;;;;;21.25;16.25;;;;;2.78;87.44;100760.72;3724921;37;20248;-58
2021/01/05 08:44:59;;;;;;;;;31.00;20.75;;;;;2.60;87.23;100722.19;3722042;37;20257;-59
2021/01/05 08:47:26;;;;;;;;;24.00;22.00;;;;;2.94;87.42;100774.50;3724971;37;20259;-58
2021/01/05 08:49:52;;;;;;;;;27.50;21.50;;;;;2.96;87.88;100772.53;3726151;37;20233;-59
2021/01/05 08:52:20;;;;;;;;;25.25;23.00;;;;;2.99;87.63;100771.44;3725867;37;20322;-60
2021/01/05 08:54:46;;;;;;;;;17.50;16.50;;;;;2.90;87.36;100757.00;3725789;37;20226;-58
2021/01/05 08:57:16;;;;;;;;;27.50;25.50;;;;;2.94;87.21;100750.44;3726099;38;20218;-60
2021/01/05 08:59:46;;;;;;;;;19.25;18.00;;;;;2.83;87.08;100758.50;3725968;38;20240;-58
2021/01/05 09:02:12;;;;;;;;;18.75;15.00;;;;;2.72;87.05;100733.66;3725730;38;20239;-60
2021/01/05 09:04:42;;;;;;;;;21.00;18.25;;;;;2.79;87.36;100745.53;3725888;37;20259;-60
2021/01/05 09:07:11;;;;;;;;;20.75;18.50;;;;;2.82;87.64;100746.13;3725535;38;20227;-59
2021/01/05 09:09:37;;;;;;;;;36.25;26.75;;;;;2.83;87.54;100744.28;3725222;37;20229;-59
2021/01/05 09:12:04;;;;;;;;;23.25;19.00;;;;;2.87;87.68;100743.91;3725651;38;20243;-58
2021/01/05 09:14:31;;;;;;;;;21.75;19.00;;;;;2.91;88.10;100741.81;3725450;37;20195;-59
2021/01/05 09:17:02;;;;;;;;;20.00;17.00;;;;;2.78;87.77;100715.28;3725684;38;20208;-58
2021/01/05 09:19:29;;;;;;;;;25.00;20.25;;;;;3.05;88.06;100743.34;3725825;37;20198;-59
2021/01/05 09:21:57;;;;;;;;;17.25;16.00;;;;;2.95;87.51;100732.56;3725335;38;20175;-58
2021/01/05 09:24:25;;;;;;;;;20.75;17.75;;;;;2.94;87.50;100733.53;3725387;37;20180;-58
2021/01/05 09:26:54;;;;;;;;;18.25;16.75;;;;;2.93;87.45;100735.37;3725466;37;20181;-61
2021/01/05 09:29:21;;;;;;;;;25.00;21.00;;;;;2.98;87.97;100740.31;3725608;37;20338;-57
2021/01/05 09:31:50;;;;;;;;;27.50;21.50;;;;;3.07;88.22;100739.56;3725835;37;20194;-58
2021/01/05 09:34:18;;;;;;;;;27.00;21.00;;;;;3.09;87.80;100726.91;3724200;38;20182;-58
2021/01/05 09:36:46;;;;;;;;;22.50;21.25;;;;;3.04;87.82;100722.91;3725241;37;20188;-60
2021/01/05 09:39:18;;;;;;;;;19.50;19.50;;;;;2.94;87.36;100723.69;3725608;37;20160;-58
2021/01/05 09:41:48;;;;;;;;;18.25;15.75;;;;;2.85;87.59;100720.97;3725117;38;20141;-58
2021/01/05 09:44:15;;;;;;;;;21.50;18.00;;;;;2.87;87.84;100727.03;3725990;38;20166;-58
2021/01/05 09:46:48;;;;;;;;;27.75;23.50;;;;;2.93;88.12;100726.50;3726021;37;20133;-58
2021/01/05 09:49:16;;;;;;;;;21.75;19.25;;;;;2.94;87.80;100730.88;3726144;37;20144;-57
2021/01/05 09:51:44;;;;;;;;;23.25;20.00;;;;;2.97;87.92;100720.75;3725768;38;20139;-58
2021/01/05 09:54:12;;;;;;;;;25.50;23.75;;;;;3.00;88.18;100719.66;3725784;38;20134;-59
2021/01/05 09:56:39;;;;;;;;;27.50;23.25;;;;;3.12;88.21;100720.44;3726014;38;20148;-59
2021/01/05 09:59:05;;;;;;;;;23.75;19.50;;;;;3.10;88.36;100701.84;3725872;38;20140;-58
2021/01/05 10:01:33;;;;;;;;;27.00;22.75;;;;;3.23;88.01;100715.84;3725875;38;20257;-59
2021/01/05 10:04:01;;;;;;;;;26.00;23.00;;;;;3.27;88.12;100709.25;3725265;37;20142;-59
2021/01/05 10:06:32;;;;;;;;;25.00;21.75;;;;;3.26;87.90;100696.84;3725641;38;20127;-58
2021/01/05 10:08:59;;;;;;;;;32.50;28.75;;;;;3.19;88.17;100692.16;3725847;38;20114;-59
2021/01/05 10:11:32;;;;;;;;;24.00;19.25;;;;;3.27;88.23;100700.38;3725795;37;20142;-59
2021/01/05 10:13:58;;;;;;;;;27.00;24.00;;;;;3.30;88.00;100697.44;3725717;37;20136;-58
2021/01/05 10:16:25;;;;;;;;;30.00;21.75;;;;;3.19;87.66;100678.78;3725750;38;20132;-59
2021/01/05 10:18:52;;;;;;;;;21.00;18.75;;;;;3.10;88.01;100671.59;3725386;38;20121;-59
2021/01/05 10:21:18;;;;;;;;;23.75;22.50;;;;;3.16;88.22;100687.06;3725646;37;20118;-58
2021/01/05 10:23:45;;;;;;;;;19.00;15.75;;;;;3.12;87.91;100675.78;3725851;37;20113;-59
2021/01/05 10:26:13;;;;;;;;;21.75;21.50;;;;;3.25;88.26;100679.09;3725785;38;20110;-58
2021/01/05 10:28:40;;;;;;;;;23.75;19.75;;;;;3.31;88.08;100678.56;3725560;38;20099;-59
2021/01/05 10:31:11;;;;;;;;;17.25;16.25;;;;;3.34;87.91;100677.47;3725703;38;20099;-59
2021/01/05 10:33:40;;;;;;;;;17.25;14.25;;;;;3.32;87.74;100674.06;3725581;37;20106;-59
2021/01/05 10:36:07;;;;;;;;;17.75;12.75;;;;;3.29;88.20;100677.00;3725762;37;20100;-60
2021/01/05 10:38:34;;;;;;;;;16.50;15.75;;;;;3.26;87.90;100669.25;3725241;38;20101;-60
2021/01/05 10:41:01;;;;;;;;;15.00;13.00;;;;;3.25;87.79;100668.41;3725379;37;20141;-60
2021/01/05 10:43:33;;;;;;;;;18.75;15.00;;;;;3.16;88.06;100668.34;3725900;37;20074;-58
2021/01/05 10:45:59;;;;;;;;;14.50;12.50;;;;;3.18;88.22;100669.06;3725601;37;20217;-57
2021/01/05 10:48:25;;;;;;;;;21.00;17.75;;;;;3.00;87.83;100647.47;3725869;37;20076;-58
2021/01/05 10:50:51;;;;;;;;;21.25;17.00;;;;;3.13;88.20;100669.47;3725753;38;20089;-59
2021/01/05 10:53:19;;;;;;;;;12.00;11.00;;;;;3.14;87.89;100670.31;3725394;37;17846;-60
2021/01/05 10:55:45;;;;;;;;;16.75;15.75;;;;;3.12;88.04;100659.75;3725469;38;20026;-59
2021/01/05 10:58:18;;;;;;;;;23.25;20.25;;;;;3.18;88.19;100656.53;3725549;38;20050;-59
2021/01/05 11:00:45;;;;;;;;;23.00;18.75;;;;;3.15;88.02;100648.78;3725766;38;20073;-58
2021/01/05 11:03:16;;;;;;;;;33.75;28.75;;;;;3.18;88.40;100650.34;3725560;38;20087;-58
2021/01/05 11:05:43;;;;;;;;;30.75;27.25;;;;;3.14;88.24;100649.75;3725387;37;20042;-59
2021/01/05 11:08:11;;;;;;;;;26.50;21.25;;;;;3.15;88.09;100645.25;3725439;38;20051;-60
2021/01/05 11:10:44;;;;;;;;;33.75;28.50;;;;;3.16;88.39;100645.12;3725322;37;20067;-59
2021/01/05 11:13:14;;;;;;;;;30.75;28.50;;;;;3.14;88.27;100622.19;3725870;38;20060;-59
2021/01/05 11:15:40;;;;;;;;;31.00;27.00;;;;;3.07;88.11;100608.53;3725351;37;20053;-59
2021/01/05 11:18:07;;;;;;;;;25.00;21.75;;;;;3.29;87.85;100652.94;3725573;38;20437;-59
2021/01/05 11:20:38;;;;;;;;;23.00;20.50;;;;;3.33;88.49;100652.53;3725195;38;20032;-59
2021/01/05 11:23:09;;;;;;;;;29.00;24.25;;;;;3.39;88.15;100652.97;3725695;37;20034;-59
2021/01/05 11:25:37;;;;;;;;;21.25;17.25;;;;;3.37;88.27;100644.25;3725934;37;20037;-59
2021/01/05 11:28:06;;;;;;;;;28.25;25.50;;;;;3.39;88.17;100637.78;3725790;37;20044;-59
2021/01/05 11:30:33;;;;;;;;;18.00;17.25;;;;;3.36;88.34;100638.03;3725454;37;20031;-58
2021/01/05 11:32:59;;;;;;;;;17.25;14.50;;;;;3.20;88.23;100614.47;3726463;38;20034;-59
2021/01/05 11:35:26;;;;;;;;;17.50;13.50;;;;;3.36;88.17;100651.41;3725948;37;20069;-59
2021/01/05 11:37:55;;;;;;;;;21.00;16.75;;;;;3.37;88.40;100642.41;3725757;37;20001;-58
2021/01/05 11:40:22;;;;;;;;;20.00;16.50;;;;;3.31;88.01;100645.62;3725671;37;19992;-58
2021/01/05 11:42:51;;;;;;;;;19.50;17.50;;;;;3.23;88.21;100632.06;3725887;38;19989;-58
2021/01/05 11:45:18;;;;;;;;;22.25;17.00;;;;;3.17;88.14;100627.25;3725409;37;19992;-59
2021/01/05 11:47:45;;;;;;;;;20.00;17.50;;;;;3.19;88.04;100633.31;3725639;37;20014;-58
2021/01/05 11:50:12;;;;;;;;;18.50;15.75;;;;;3.16;88.24;100639.78;3725206;37;19974;-59
2021/01/05 11:52:39;;;;;;;;;26.75;22.50;;;;;3.26;88.56;100642.50;3725551;38;19987;-58